sensor_id;sensor_type;location;lat;lon;timestamp;pressure;altitude;pressure_sealevel;temperature;humidity
84190;BME280;74321;53.406;8.146;2023-12-04T00:00:40;101782.09;;;-2.26;100.00
84190;BME280;74321;53.406;8.146;2023-12-04T00:05:43;101760.66;;;-2.34;100.00
84190;BME280;74321;53.406;8.146;2023-12-04T00:10:48;101796.00;;;-2.17;100.00
84190;BME280;74321;53.406;8.146;2023-12-04T00:15:50;101632.91;;;-3.10;100.00
84190;BME280;74321;53.406;8.146;2023-12-04T00:20:52;101700.34;;;-2.75;100.00
84190;BME280;74321;53.406;8.146;2023-12-04T00:25:55;101760.66;;;-2.34;100.00
84190;BME280;74321;53.406;8.146;2023-12-04T00:30:57;101750.53;;;-2.35;100.00
84190;BME280;74321;53.406;8.146;2023-12-04T00:35:59;101759.03;;;-2.33;100.00
84190;BME280;74321;53.406;8.146;2023-12-04T00:41:01;101664.53;;;-2.86;100.00
84190;BME280;74321;53.406;8.146;2023-12-04T00:46:03;101589.69;;;-3.19;100.00
84190;BME280;74321;53.406;8.146;2023-12-04T00:51:06;101674.00;;;-2.68;100.00
84190;BME280;74321;53.406;8.146;2023-12-04T00:56:09;101621.53;;;-2.92;100.00
84190;BME280;74321;53.406;8.146;2023-12-04T01:01:11;101711.06;;;-2.38;100.00
84190;BME280;74321;53.406;8.146;2023-12-04T01:06:24;101631.84;;;-2.87;100.00
84190;BME280;74321;53.406;8.146;2023-12-04T01:11:26;101592.81;;;-2.97;100.00
84190;BME280;74321;53.406;8.146;2023-12-04T01:16:29;101600.41;;;-2.82;100.00
84190;BME280;74321;53.406;8.146;2023-12-04T01:21:31;101705.72;;;-2.16;100.00
84190;BME280;74321;53.406;8.146;2023-12-04T01:26:33;101542.66;;;-3.10;100.00
84190;BME280;74321;53.406;8.146;2023-12-04T01:31:35;101698.56;;;-2.10;100.00
84190;BME280;74321;53.406;8.146;2023-12-04T01:36:40;101700.13;;;-2.12;100.00
84190;BME280;74321;53.406;8.146;2023-12-04T01:41:44;101680.13;;;-2.23;100.00
84190;BME280;74321;53.406;8.146;2023-12-04T01:46:46;101563.84;;;-2.92;100.00
84190;BME280;74321;53.406;8.146;2023-12-04T01:51:48;101626.13;;;-2.45;100.00
84190;BME280;74321;53.406;8.146;2023-12-04T01:56:50;101675.13;;;-2.23;100.00
84190;BME280;74321;53.406;8.146;2023-12-04T02:01:52;101637.41;;;-2.38;100.00
84190;BME280;74321;53.406;8.146;2023-12-04T02:06:55;101664.59;;;-2.18;100.00
84190;BME280;74321;53.406;8.146;2023-12-04T02:11:59;101636.50;;;-2.26;100.00
84190;BME280;74321;53.406;8.146;2023-12-04T02:17:01;101659.66;;;-2.16;100.00
84190;BME280;74321;53.406;8.146;2023-12-04T02:22:06;101663.78;;;-2.04;100.00
84190;BME280;74321;53.406;8.146;2023-12-04T02:32:53;101615.66;;;-2.24;100.00
84190;BME280;74321;53.406;8.146;2023-12-04T02:37:56;101611.88;;;-2.18;100.00
84190;BME280;74321;53.406;8.146;2023-12-04T02:43:00;101611.56;;;-2.09;100.00
84190;BME280;74321;53.406;8.146;2023-12-04T02:48:02;101504.59;;;-2.63;100.00
84190;BME280;74321;53.406;8.146;2023-12-04T02:53:04;101560.25;;;-2.28;100.00
84190;BME280;74321;53.406;8.146;2023-12-04T02:58:06;101582.13;;;-2.12;100.00
84190;BME280;74321;53.406;8.146;2023-12-04T03:03:08;101539.03;;;-2.33;100.00
84190;BME280;74321;53.406;8.146;2023-12-04T03:08:11;101593.66;;;-2.01;100.00
84190;BME280;74321;53.406;8.146;2023-12-04T03:13:13;101577.94;;;-1.98;100.00
84190;BME280;74321;53.406;8.146;2023-12-04T03:18:15;101563.19;;;-2.07;100.00
84190;BME280;74321;53.406;8.146;2023-12-04T03:23:17;101571.34;;;-1.96;100.00
84190;BME280;74321;53.406;8.146;2023-12-04T03:28:19;101572.22;;;-1.95;100.00
84190;BME280;74321;53.406;8.146;2023-12-04T03:33:21;101417.44;;;-2.80;100.00
84190;BME280;74321;53.406;8.146;2023-12-04T03:38:23;101535.28;;;-2.11;100.00
84190;BME280;74321;53.406;8.146;2023-12-04T03:43:25;101548.91;;;-1.93;100.00
84190;BME280;74321;53.406;8.146;2023-12-04T03:48:28;101440.56;;;-2.57;100.00
84190;BME280;74321;53.406;8.146;2023-12-04T03:53:30;101437.13;;;-2.59;100.00
84190;BME280;74321;53.406;8.146;2023-12-04T03:58:32;101499.09;;;-2.15;100.00
84190;BME280;74321;53.406;8.146;2023-12-04T04:03:34;101533.84;;;-1.93;100.00
84190;BME280;74321;53.406;8.146;2023-12-04T04:08:36;101505.97;;;-1.98;100.00
84190;BME280;74321;53.406;8.146;2023-12-04T04:13:39;101528.31;;;-1.87;100.00
84190;BME280;74321;53.406;8.146;2023-12-04T04:18:42;101517.41;;;-1.88;100.00
84190;BME280;74321;53.406;8.146;2023-12-04T04:23:45;101483.44;;;-2.11;100.00
84190;BME280;74321;53.406;8.146;2023-12-04T04:28:47;101501.88;;;-1.95;100.00
84190;BME280;74321;53.406;8.146;2023-12-04T04:33:49;101486.47;;;-2.02;100.00
84190;BME280;74321;53.406;8.146;2023-12-04T04:38:51;101469.81;;;-2.00;100.00
84190;BME280;74321;53.406;8.146;2023-12-04T04:43:53;101307.25;;;-2.92;100.00
84190;BME280;74321;53.406;8.146;2023-12-04T04:48:56;101483.34;;;-1.83;100.00
84190;BME280;74321;53.406;8.146;2023-12-04T04:53:58;101441.75;;;-2.07;100.00
84190;BME280;74321;53.406;8.146;2023-12-04T04:59:00;101475.72;;;-1.84;100.00
84190;BME280;74321;53.406;8.146;2023-12-04T05:04:02;101454.16;;;-1.95;100.00
84190;BME280;74321;53.406;8.146;2023-12-04T05:09:05;101446.00;;;-1.91;100.00
84190;BME280;74321;53.406;8.146;2023-12-04T05:14:07;101439.53;;;-2.03;100.00
84190;BME280;74321;53.406;8.146;2023-12-04T05:19:09;101439.47;;;-1.89;100.00
84190;BME280;74321;53.406;8.146;2023-12-04T05:24:27;101416.34;;;-1.99;100.00
84190;BME280;74321;53.406;8.146;2023-12-04T05:29:29;101401.00;;;-2.03;100.00
84190;BME280;74321;53.406;8.146;2023-12-04T05:34:31;101419.38;;;-1.89;100.00
84190;BME280;74321;53.406;8.146;2023-12-04T05:39:33;101398.13;;;-1.94;100.00
84190;BME280;74321;53.406;8.146;2023-12-04T05:44:36;101439.69;;;-1.70;100.00
84190;BME280;74321;53.406;8.146;2023-12-04T05:49:39;101418.81;;;-1.84;100.00
84190;BME280;74321;53.406;8.146;2023-12-04T05:54:41;101411.56;;;-1.79;100.00
84190;BME280;74321;53.406;8.146;2023-12-04T05:59:43;101395.97;;;-1.88;100.00
84190;BME280;74321;53.406;8.146;2023-12-04T06:04:45;101401.50;;;-1.79;100.00
84190;BME280;74321;53.406;8.146;2023-12-04T06:09:47;101406.53;;;-1.79;100.00
84190;BME280;74321;53.406;8.146;2023-12-04T06:14:49;101309.97;;;-2.30;100.00
84190;BME280;74321;53.406;8.146;2023-12-04T06:19:53;101395.84;;;-1.75;100.00
84190;BME280;74321;53.406;8.146;2023-12-04T06:24:55;101416.72;;;-1.61;100.00
84190;BME280;74321;53.406;8.146;2023-12-04T06:29:57;101409.25;;;-1.60;100.00
84190;BME280;74321;53.406;8.146;2023-12-04T06:35:00;101400.50;;;-1.52;100.00
84190;BME280;74321;53.406;8.146;2023-12-04T06:40:02;101369.44;;;-1.68;100.00
84190;BME280;74321;53.406;8.146;2023-12-04T06:45:05;101381.53;;;-1.61;100.00
84190;BME280;74321;53.406;8.146;2023-12-04T06:55:41;101401.69;;;-1.45;100.00
84190;BME280;74321;53.406;8.146;2023-12-04T07:00:43;101390.69;;;-1.47;100.00
84190;BME280;74321;53.406;8.146;2023-12-04T07:05:45;101353.66;;;-1.66;100.00
84190;BME280;74321;53.406;8.146;2023-12-04T07:10:47;101387.63;;;-1.42;100.00
84190;BME280;74321;53.406;8.146;2023-12-04T07:15:49;101240.56;;;-2.30;100.00
84190;BME280;74321;53.406;8.146;2023-12-04T07:20:51;101385.44;;;-1.35;100.00
84190;BME280;74321;53.406;8.146;2023-12-04T07:25:53;101335.53;;;-1.60;100.00
84190;BME280;74321;53.406;8.146;2023-12-04T07:30:56;101386.50;;;-1.32;100.00
84190;BME280;74321;53.406;8.146;2023-12-04T07:35:58;101358.09;;;-1.46;100.00
84190;BME280;74321;53.406;8.146;2023-12-04T07:41:00;101363.28;;;-1.43;100.00
84190;BME280;74321;53.406;8.146;2023-12-04T07:46:03;101349.69;;;-1.46;100.00
84190;BME280;74321;53.406;8.146;2023-12-04T07:51:07;101361.88;;;-1.37;100.00
84190;BME280;74321;53.406;8.146;2023-12-04T07:56:11;101387.19;;;-1.18;100.00
84190;BME280;74321;53.406;8.146;2023-12-04T08:01:14;101305.16;;;-1.65;100.00
84190;BME280;74321;53.406;8.146;2023-12-04T08:06:17;101372.84;;;-1.21;100.00
84190;BME280;74321;53.406;8.146;2023-12-04T08:11:22;101350.75;;;-1.26;100.00
84190;BME280;74321;53.406;8.146;2023-12-04T08:16:24;101275.94;;;-1.63;100.00
84190;BME280;74321;53.406;8.146;2023-12-04T08:21:26;101311.69;;;-1.36;100.00
84190;BME280;74321;53.406;8.146;2023-12-04T08:26:28;101352.94;;;-1.00;100.00
84190;BME280;74321;53.406;8.146;2023-12-04T08:31:30;101336.84;;;-1.03;100.00
84190;BME280;74321;53.406;8.146;2023-12-04T08:36:32;101319.25;;;-1.03;100.00
84190;BME280;74321;53.406;8.146;2023-12-04T08:41:47;101304.81;;;-1.07;100.00
84190;BME280;74321;53.406;8.146;2023-12-04T08:47:02;101307.84;;;-0.97;100.00
84190;BME280;74321;53.406;8.146;2023-12-04T08:52:04;101322.06;;;-0.97;100.00
84190;BME280;74321;53.406;8.146;2023-12-04T08:57:08;101284.50;;;-1.10;100.00
84190;BME280;74321;53.406;8.146;2023-12-04T09:02:10;101272.41;;;-1.18;100.00
84190;BME280;74321;53.406;8.146;2023-12-04T09:07:15;101299.81;;;-0.90;100.00
84190;BME280;74321;53.406;8.146;2023-12-04T09:12:20;101282.38;;;-1.03;100.00
84190;BME280;74321;53.406;8.146;2023-12-04T09:17:23;101273.97;;;-1.03;100.00
84190;BME280;74321;53.406;8.146;2023-12-04T09:22:29;101162.09;;;-1.62;100.00
84190;BME280;74321;53.406;8.146;2023-12-04T09:27:47;101289.03;;;-0.87;100.00
84190;BME280;74321;53.406;8.146;2023-12-04T09:32:49;101313.31;;;-0.71;100.00
84190;BME280;74321;53.406;8.146;2023-12-04T09:37:51;101284.16;;;-0.84;100.00
84190;BME280;74321;53.406;8.146;2023-12-04T09:42:54;101176.91;;;-1.50;100.00
84190;BME280;74321;53.406;8.146;2023-12-04T09:47:56;101279.84;;;-0.87;99.82
84190;BME280;74321;53.406;8.146;2023-12-04T09:58:34;101295.78;;;-0.70;98.93
84190;BME280;74321;53.406;8.146;2023-12-04T10:03:36;101304.69;;;-0.59;97.18
84190;BME280;74321;53.406;8.146;2023-12-04T10:08:40;101266.66;;;-0.65;96.14
84190;BME280;74321;53.406;8.146;2023-12-04T10:13:42;101117.84;;;-1.42;95.89
84190;BME280;74321;53.406;8.146;2023-12-04T10:19:17;101260.94;;;-0.44;95.26
84190;BME280;74321;53.406;8.146;2023-12-04T10:24:38;101269.78;;;-0.35;95.05
84190;BME280;74321;53.406;8.146;2023-12-04T10:29:43;101132.63;;;-1.14;93.55
84190;BME280;74321;53.406;8.146;2023-12-04T10:34:45;101096.81;;;-1.26;92.54
84190;BME280;74321;53.406;8.146;2023-12-04T10:39:51;101183.63;;;-0.65;91.96
84190;BME280;74321;53.406;8.146;2023-12-04T10:44:57;101246.19;;;-0.37;91.61
84190;BME280;74321;53.406;8.146;2023-12-04T10:50:00;101201.06;;;-0.50;90.62
84190;BME280;74321;53.406;8.146;2023-12-04T10:55:03;101246.34;;;-0.16;90.90
84190;BME280;74321;53.406;8.146;2023-12-04T11:00:08;101163.13;;;-0.54;91.19
84190;BME280;74321;53.406;8.146;2023-12-04T11:05:14;101209.88;;;-0.24;90.07
84190;BME280;74321;53.406;8.146;2023-12-04T11:10:23;101213.78;;;-0.11;90.27
84190;BME280;74321;53.406;8.146;2023-12-04T11:15:29;101200.34;;;-0.12;89.66
84190;BME280;74321;53.406;8.146;2023-12-04T11:20:37;101184.59;;;-0.25;89.13
84190;BME280;74321;53.406;8.146;2023-12-04T11:25:41;101169.34;;;-0.29;87.94
84190;BME280;74321;53.406;8.146;2023-12-04T11:30:44;101161.94;;;-0.25;87.31
84190;BME280;74321;53.406;8.146;2023-12-04T11:35:47;101184.19;;;0.03;87.86
84190;BME280;74321;53.406;8.146;2023-12-04T11:40:52;101144.00;;;-0.14;86.94
84190;BME280;74321;53.406;8.146;2023-12-04T11:46:08;101151.22;;;-0.02;85.48
84190;BME280;74321;53.406;8.146;2023-12-04T11:52:03;101161.59;;;0.04;84.41
84190;BME280;74321;53.406;8.146;2023-12-04T11:56:37;101158.59;;;0.13;85.20
84190;BME280;74321;53.406;8.146;2023-12-04T12:01:39;101102.97;;;-0.11;83.47
84190;BME280;74321;53.406;8.146;2023-12-04T12:06:44;101103.31;;;-0.04;84.16
84190;BME280;74321;53.406;8.146;2023-12-04T12:11:47;101132.81;;;0.18;83.66
84190;BME280;74321;53.406;8.146;2023-12-04T12:16:49;101098.34;;;-0.02;84.34
84190;BME280;74321;53.406;8.146;2023-12-04T12:21:51;101107.34;;;0.12;86.96
84190;BME280;74321;53.406;8.146;2023-12-04T12:26:54;101122.28;;;0.27;89.53
84190;BME280;74321;53.406;8.146;2023-12-04T12:31:57;101112.38;;;0.12;88.59
84190;BME280;74321;53.406;8.146;2023-12-04T12:36:59;101110.13;;;-0.01;87.17
84190;BME280;74321;53.406;8.146;2023-12-04T12:42:02;101096.56;;;-0.05;88.29
84190;BME280;74321;53.406;8.146;2023-12-04T12:47:07;101103.53;;;0.01;88.14
84190;BME280;74321;53.406;8.146;2023-12-04T12:52:09;101071.88;;;-0.12;86.61
84190;BME280;74321;53.406;8.146;2023-12-04T12:57:12;101048.34;;;-0.12;87.70
84190;BME280;74321;53.406;8.146;2023-12-04T13:02:14;101037.91;;;-0.21;86.42
84190;BME280;74321;53.406;8.146;2023-12-04T13:07:17;101018.22;;;-0.30;86.37
84190;BME280;74321;53.406;8.146;2023-12-04T13:12:20;101066.38;;;-0.03;87.80
84190;BME280;74321;53.406;8.146;2023-12-04T13:17:22;101026.22;;;-0.19;86.24
84190;BME280;74321;53.406;8.146;2023-12-04T13:22:25;101025.44;;;-0.18;86.88
84190;BME280;74321;53.406;8.146;2023-12-04T13:27:27;101022.09;;;-0.17;86.44
84190;BME280;74321;53.406;8.146;2023-12-04T13:32:30;101004.03;;;-0.28;86.14
84190;BME280;74321;53.406;8.146;2023-12-04T13:37:33;101032.38;;;-0.13;86.67
84190;BME280;74321;53.406;8.146;2023-12-04T13:42:35;101009.28;;;-0.23;85.63
84190;BME280;74321;53.406;8.146;2023-12-04T13:47:58;101024.09;;;-0.10;86.57
84190;BME280;74321;53.406;8.146;2023-12-04T13:53:00;100998.53;;;-0.19;85.46
84190;BME280;74321;53.406;8.146;2023-12-04T13:58:03;101032.66;;;-0.07;85.41
84190;BME280;74321;53.406;8.146;2023-12-04T14:03:12;101017.59;;;-0.05;85.17
84190;BME280;74321;53.406;8.146;2023-12-04T14:08:15;100994.22;;;-0.22;85.73
84190;BME280;74321;53.406;8.146;2023-12-04T14:13:17;100989.31;;;-0.19;86.39
84190;BME280;74321;53.406;8.146;2023-12-04T14:18:19;101003.81;;;-0.13;86.94
84190;BME280;74321;53.406;8.146;2023-12-04T14:23:21;100964.44;;;-0.32;86.74
84190;BME280;74321;53.406;8.146;2023-12-04T14:28:23;100912.91;;;-0.60;86.74
84190;BME280;74321;53.406;8.146;2023-12-04T14:33:33;100961.09;;;-0.31;86.75
84190;BME280;74321;53.406;8.146;2023-12-04T14:38:38;100963.00;;;-0.25;88.81
84190;BME280;74321;53.406;8.146;2023-12-04T14:43:40;100933.41;;;-0.31;84.80
84190;BME280;74321;53.406;8.146;2023-12-04T14:48:44;100960.00;;;-0.17;84.53
84190;BME280;74321;53.406;8.146;2023-12-04T14:53:46;100966.78;;;-0.16;85.83
84190;BME280;74321;53.406;8.146;2023-12-04T14:58:53;100944.47;;;-0.28;85.31
84190;BME280;74321;53.406;8.146;2023-12-04T15:04:07;100959.88;;;-0.20;85.01
84190;BME280;74321;53.406;8.146;2023-12-04T15:09:27;100919.50;;;-0.42;83.89
84190;BME280;74321;53.406;8.146;2023-12-04T15:14:35;100957.06;;;-0.28;85.14
84190;BME280;74321;53.406;8.146;2023-12-04T15:19:37;100922.50;;;-0.51;85.62
84190;BME280;74321;53.406;8.146;2023-12-04T15:24:51;100948.53;;;-0.31;85.43
84190;BME280;74321;53.406;8.146;2023-12-04T15:29:53;100937.06;;;-0.44;85.48
84190;BME280;74321;53.406;8.146;2023-12-04T15:34:55;100838.84;;;-1.05;87.60
84190;BME280;74321;53.406;8.146;2023-12-04T15:39:59;100867.38;;;-0.66;84.08
84190;BME280;74321;53.406;8.146;2023-12-04T15:45:01;100887.66;;;-0.61;86.74
84190;BME280;74321;53.406;8.146;2023-12-04T15:50:04;100908.72;;;-0.59;90.29
84190;BME280;74321;53.406;8.146;2023-12-04T15:55:09;100912.94;;;-0.39;85.20
84190;BME280;74321;53.406;8.146;2023-12-04T16:00:14;100879.53;;;-0.55;85.18
84190;BME280;74321;53.406;8.146;2023-12-04T16:05:17;100864.38;;;-0.57;84.59
84190;BME280;74321;53.406;8.146;2023-12-04T16:10:19;100885.53;;;-0.52;90.40
84190;BME280;74321;53.406;8.146;2023-12-04T16:15:21;100867.75;;;-0.57;89.90
84190;BME280;74321;53.406;8.146;2023-12-04T16:20:24;100863.75;;;-0.51;85.89
84190;BME280;74321;53.406;8.146;2023-12-04T16:25:26;100902.34;;;-0.32;84.20
84190;BME280;74321;53.406;8.146;2023-12-04T16:30:28;100823.22;;;-0.78;82.98
84190;BME280;74321;53.406;8.146;2023-12-04T16:35:31;100908.41;;;-0.26;85.20
84190;BME280;74321;53.406;8.146;2023-12-04T16:40:33;100896.19;;;-0.38;85.28
84190;BME280;74321;53.406;8.146;2023-12-04T16:45:35;100887.72;;;-0.40;86.32
84190;BME280;74321;53.406;8.146;2023-12-04T16:50:37;100897.09;;;-0.36;85.58
84190;BME280;74321;53.406;8.146;2023-12-04T16:55:39;100899.63;;;-0.36;88.23
84190;BME280;74321;53.406;8.146;2023-12-04T17:00:41;100883.41;;;-0.43;88.28
84190;BME280;74321;53.406;8.146;2023-12-04T17:05:43;100897.16;;;-0.35;86.50
84190;BME280;74321;53.406;8.146;2023-12-04T17:10:46;100844.78;;;-0.64;86.15
84190;BME280;74321;53.406;8.146;2023-12-04T17:15:49;100886.25;;;-0.35;86.79
84190;BME280;74321;53.406;8.146;2023-12-04T17:20:51;100856.94;;;-0.54;86.61
84190;BME280;74321;53.406;8.146;2023-12-04T17:25:54;100882.53;;;-0.43;87.25
84190;BME280;74321;53.406;8.146;2023-12-04T17:30:56;100858.59;;;-0.54;87.22
84190;BME280;74321;53.406;8.146;2023-12-04T17:35:58;100831.34;;;-0.84;89.20
84190;BME280;74321;53.406;8.146;2023-12-04T17:41:03;100836.59;;;-0.79;88.42
84190;BME280;74321;53.406;8.146;2023-12-04T17:46:06;100838.97;;;-0.82;88.99
84190;BME280;74321;53.406;8.146;2023-12-04T17:51:16;100857.41;;;-0.63;86.58
84190;BME280;74321;53.406;8.146;2023-12-04T17:56:19;100842.25;;;-0.83;88.14
84190;BME280;74321;53.406;8.146;2023-12-04T18:01:21;100808.53;;;-1.08;92.25
84190;BME280;74321;53.406;8.146;2023-12-04T18:06:27;100854.06;;;-0.82;90.40
84190;BME280;74321;53.406;8.146;2023-12-04T18:11:30;100830.09;;;-0.94;92.04
84190;BME280;74321;53.406;8.146;2023-12-04T18:16:32;100845.47;;;-0.88;93.86
84190;BME280;74321;53.406;8.146;2023-12-04T18:21:35;100853.72;;;-0.71;91.23
84190;BME280;74321;53.406;8.146;2023-12-04T18:26:37;100809.53;;;-1.04;92.82
84190;BME280;74321;53.406;8.146;2023-12-04T18:31:41;100841.34;;;-0.86;93.46
84190;BME280;74321;53.406;8.146;2023-12-04T18:36:48;100851.03;;;-0.95;93.84
84190;BME280;74321;53.406;8.146;2023-12-04T18:41:55;100811.66;;;-1.14;93.79
84190;BME280;74321;53.406;8.146;2023-12-04T18:46:59;100812.50;;;-1.13;94.05
84190;BME280;74321;53.406;8.146;2023-12-04T18:52:01;100809.47;;;-1.06;93.55
84190;BME280;74321;53.406;8.146;2023-12-04T18:57:04;100820.91;;;-0.93;94.85
84190;BME280;74321;53.406;8.146;2023-12-04T19:02:06;100820.81;;;-0.75;94.61
84190;BME280;74321;53.406;8.146;2023-12-04T19:07:08;100797.06;;;-0.82;94.52
84190;BME280;74321;53.406;8.146;2023-12-04T19:12:11;100803.47;;;-0.69;94.23
84190;BME280;74321;53.406;8.146;2023-12-04T19:17:15;100749.66;;;-1.13;94.89
84190;BME280;74321;53.406;8.146;2023-12-04T19:22:17;100806.34;;;-0.81;94.37
84190;BME280;74321;53.406;8.146;2023-12-04T19:27:19;100779.22;;;-0.88;93.05
84190;BME280;74321;53.406;8.146;2023-12-04T19:32:21;100788.19;;;-0.74;94.02
84190;BME280;74321;53.406;8.146;2023-12-04T19:37:24;100829.75;;;-0.42;93.21
84190;BME280;74321;53.406;8.146;2023-12-04T19:42:26;100769.94;;;-0.68;91.56
84190;BME280;74321;53.406;8.146;2023-12-04T19:47:29;100782.09;;;-0.58;90.76
84190;BME280;74321;53.406;8.146;2023-12-04T19:52:31;100798.69;;;-0.42;91.02
84190;BME280;74321;53.406;8.146;2023-12-04T19:57:33;100782.84;;;-0.40;90.78
84190;BME280;74321;53.406;8.146;2023-12-04T20:02:36;100752.03;;;-0.55;88.57
84190;BME280;74321;53.406;8.146;2023-12-04T20:07:42;100798.72;;;-0.20;87.15
84190;BME280;74321;53.406;8.146;2023-12-04T20:12:44;100748.91;;;-0.49;87.65
84190;BME280;74321;53.406;8.146;2023-12-04T20:17:47;100767.31;;;-0.30;85.30
84190;BME280;74321;53.406;8.146;2023-12-04T20:22:49;100742.63;;;-0.38;85.95
84190;BME280;74321;53.406;8.146;2023-12-04T20:27:51;100751.00;;;-0.39;86.42
84190;BME280;74321;53.406;8.146;2023-12-04T20:32:53;100770.72;;;-0.28;86.67
84190;BME280;74321;53.406;8.146;2023-12-04T20:37:55;100752.94;;;-0.32;85.32
84190;BME280;74321;53.406;8.146;2023-12-04T20:42:57;100753.00;;;-0.31;85.42
84190;BME280;74321;53.406;8.146;2023-12-04T20:47:59;100767.41;;;-0.26;87.41
84190;BME280;74321;53.406;8.146;2023-12-04T20:53:02;100769.41;;;-0.40;88.37
84190;BME280;74321;53.406;8.146;2023-12-04T20:58:04;100754.59;;;-0.53;88.85
84190;BME280;74321;53.406;8.146;2023-12-04T21:03:09;100727.81;;;-0.74;90.29
84190;BME280;74321;53.406;8.146;2023-12-04T21:08:11;100733.44;;;-0.79;89.06
84190;BME280;74321;53.406;8.146;2023-12-04T21:13:13;100699.63;;;-1.07;90.27
84190;BME280;74321;53.406;8.146;2023-12-04T21:18:15;100726.81;;;-0.98;90.99
84190;BME280;74321;53.406;8.146;2023-12-04T21:23:17;100772.84;;;-0.80;92.55
84190;BME280;74321;53.406;8.146;2023-12-04T21:28:19;100770.84;;;-0.87;92.22
84190;BME280;74321;53.406;8.146;2023-12-04T21:33:22;100686.59;;;-1.38;93.00
84190;BME280;74321;53.406;8.146;2023-12-04T21:38:25;100737.22;;;-1.10;92.86
84190;BME280;74321;53.406;8.146;2023-12-04T21:43:27;100751.81;;;-1.01;94.60
84190;BME280;74321;53.406;8.146;2023-12-04T21:48:29;100732.84;;;-1.14;93.67
84190;BME280;74321;53.406;8.146;2023-12-04T21:53:32;100718.16;;;-1.24;93.64
84190;BME280;74321;53.406;8.146;2023-12-04T21:58:34;100698.03;;;-1.45;94.28
84190;BME280;74321;53.406;8.146;2023-12-04T22:03:36;100720.38;;;-1.32;94.39
84190;BME280;74321;53.406;8.146;2023-12-04T22:08:39;100716.22;;;-1.31;94.91
84190;BME280;74321;53.406;8.146;2023-12-04T22:13:41;100695.63;;;-1.42;93.88
84190;BME280;74321;53.406;8.146;2023-12-04T22:18:43;100686.72;;;-1.55;93.33
84190;BME280;74321;53.406;8.146;2023-12-04T22:23:46;100736.44;;;-1.28;94.60
84190;BME280;74321;53.406;8.146;2023-12-04T22:28:48;100707.66;;;-1.35;95.36
84190;BME280;74321;53.406;8.146;2023-12-04T22:33:50;100673.31;;;-1.55;93.66
84190;BME280;74321;53.406;8.146;2023-12-04T22:38:53;100717.31;;;-1.25;95.14
84190;BME280;74321;53.406;8.146;2023-12-04T22:43:56;100713.03;;;-1.27;93.01
84190;BME280;74321;53.406;8.146;2023-12-04T22:48:58;100604.78;;;-1.91;93.12
84190;BME280;74321;53.406;8.146;2023-12-04T22:54:00;100693.38;;;-1.36;93.16
84190;BME280;74321;53.406;8.146;2023-12-04T22:59:02;100659.91;;;-1.56;91.93
84190;BME280;74321;53.406;8.146;2023-12-04T23:04:04;100689.38;;;-1.32;92.68
84190;BME280;74321;53.406;8.146;2023-12-04T23:09:07;100692.16;;;-1.25;92.26
84190;BME280;74321;53.406;8.146;2023-12-04T23:14:09;100649.22;;;-1.50;91.92
84190;BME280;74321;53.406;8.146;2023-12-04T23:19:11;100690.06;;;-1.35;93.20
84190;BME280;74321;53.406;8.146;2023-12-04T23:24:13;100680.22;;;-1.50;94.12
84190;BME280;74321;53.406;8.146;2023-12-04T23:29:15;100683.69;;;-1.48;97.67
84190;BME280;74321;53.406;8.146;2023-12-04T23:34:17;100657.69;;;-1.67;97.82
84190;BME280;74321;53.406;8.146;2023-12-04T23:39:19;100680.63;;;-1.60;99.39
84190;BME280;74321;53.406;8.146;2023-12-04T23:44:22;100669.94;;;-1.75;100.00
84190;BME280;74321;53.406;8.146;2023-12-04T23:49:24;100688.97;;;-1.61;100.00
84190;BME280;74321;53.406;8.146;2023-12-04T23:54:26;100679.44;;;-1.68;100.00
84190;BME280;74321;53.406;8.146;2023-12-04T23:59:30;100679.44;;;-1.68;100.00
